Time;durP1;ratioP1;P1;durP2;ratioP2;P2;SDS_P1;SDS_P2;PMS_P1;PMS_P2;Temp;Humidity;BMP_temperature;BMP_pressure;BME280_temperature;BME280_humidity;BME280_pressure;Samples;Min_cycle;Max_cycle;Signal;HPM_P1;HPM_P2
2022/12/04 00:01:30;;;;;;;;;;;0.50;99.90;;;;;;5030809;28;20294;-70
2022/12/04 00:04:00;;;;;;;;;;;1.20;99.90;;;;;;5045721;28;19925;-71
2022/12/04 00:06:26;;;;;;;;;;;0.50;99.90;;;;;;5046005;27;19925;-70
2022/12/04 00:08:52;;;;;;;;;;;0.60;99.90;;;;;;5031751;28;20023;-79
2022/12/04 00:11:22;;;;;;;;;;;0.50;99.90;;;;;;5031497;28;20366;-70
2022/12/04 00:13:48;;;;;;;;;;;0.40;99.90;;;;;;5030781;28;20447;-70
2022/12/04 00:16:15;;;;;;;;;;;0.50;99.90;;;;;;5013433;28;20021;-69
2022/12/04 00:18:41;;;;;;;;;;;1.10;99.90;;;;;;5014332;28;19937;-70
2022/12/04 00:21:08;;;;;;;;;;;0.50;99.90;;;;;;5031446;28;20374;-69
2022/12/04 00:23:34;;;;;;;;;;;0.50;99.90;;;;;;5030646;28;20065;-69
2022/12/04 00:26:01;;;;;;;;;;;0.60;99.90;;;;;;5031563;28;19925;-69
2022/12/04 00:28:26;;;;;;;;;;;0.90;99.90;;;;;;5014210;28;20289;-71
2022/12/04 00:30:52;;;;;;;;;;;0.50;99.90;;;;;;5047277;28;19935;-69
2022/12/04 00:33:17;;;;;;;;;;;0.50;99.90;;;;;;5046649;28;19925;-71
2022/12/04 00:35:43;;;;;;;;;;;0.50;99.90;;;;;;5031445;28;19929;-71
2022/12/04 00:38:08;;;;;;;;;;;0.50;99.90;;;;;;5030998;28;19936;-70
2022/12/04 00:40:34;;;;;;;;;;;0.50;99.90;;;;;;5031346;28;19953;-70
2022/12/04 00:43:00;;;;;;;;;;;0.70;99.90;;;;;;5046392;28;19979;-70
2022/12/04 00:45:25;;;;;;;;;;;1.00;99.90;;;;;;5031605;28;19964;-69
2022/12/04 00:47:51;;;;;;;;;;;0.50;99.90;;;;;;5030312;28;19933;-70
2022/12/04 00:50:16;;;;;;;;;;;0.40;99.90;;;;;;5063141;28;20071;-71
2022/12/04 00:52:42;;;;;;;;;;;0.50;99.90;;;;;;5013493;28;20358;-71
2022/12/04 00:55:08;;;;;;;;;;;1.20;99.90;;;;;;5030648;28;19926;-69
2022/12/04 00:57:33;;;;;;;;;;;0.40;99.90;;;;;;5046216;28;19933;-72
2022/12/04 00:59:59;;;;;;;;;;;0.30;99.90;;;;;;5030901;28;20393;-80
2022/12/04 01:02:24;;;;;;;;;;;0.30;99.90;;;;;;5030535;28;19998;-70
2022/12/04 01:04:50;;;;;;;;;;;0.30;99.90;;;;;;5030604;28;19925;-69
2022/12/04 01:07:16;;;;;;;;;;;0.20;99.90;;;;;;5030745;28;19933;-73
2022/12/04 01:09:41;;;;;;;;;;;0.20;99.90;;;;;;5030720;28;19932;-70
2022/12/04 01:12:07;;;;;;;;;;;0.10;99.90;;;;;;5046000;28;19926;-69
2022/12/04 01:14:32;;;;;;;;;;;0.10;99.90;;;;;;5030863;28;19929;-70
2022/12/04 01:16:58;;;;;;;;;;;0.10;99.90;;;;;;5030621;28;19925;-70
2022/12/04 01:19:23;;;;;;;;;;;0.00;99.90;;;;;;5045302;28;19925;-70
2022/12/04 01:21:49;;;;;;;;;;;-0.10;99.90;;;;;;5063104;28;19928;-69
2022/12/04 01:24:15;;;;;;;;;;;-0.10;99.90;;;;;;5029299;28;20353;-73
2022/12/04 01:26:40;;;;;;;;;;;0.50;99.90;;;;;;5029678;28;20311;-69
2022/12/04 01:29:06;;;;;;;;;;;-0.20;99.90;;;;;;5045418;28;19925;-69
2022/12/04 01:31:31;;;;;;;;;;;-0.20;99.90;;;;;;5046268;28;19932;-71
2022/12/04 01:33:57;;;;;;;;;;;-0.20;99.90;;;;;;5046071;28;19925;-70
2022/12/04 01:36:24;;;;;;;;;;;-0.20;99.90;;;;;;5030172;28;19929;-69
2022/12/04 01:38:49;;;;;;;;;;;-0.20;99.90;;;;;;5029552;28;19932;-71
2022/12/04 01:41:16;;;;;;;;;;;-0.20;99.90;;;;;;5030141;28;19925;-70
2022/12/04 01:43:42;;;;;;;;;;;-0.20;99.90;;;;;;5012920;28;19926;-69
2022/12/04 01:46:08;;;;;;;;;;;-0.20;99.90;;;;;;5045500;28;19932;-74
2022/12/04 01:48:34;;;;;;;;;;;-0.20;99.90;;;;;;5030288;28;19925;-70
2022/12/04 01:51:07;;;;;;;;;;;-0.20;99.90;;;;;;5012926;28;20286;-69
2022/12/04 01:53:35;;;;;;;;;;;-0.10;99.90;;;;;;5030295;28;20025;-70
2022/12/04 01:56:01;;;;;;;;;;;-0.20;99.90;;;;;;5044817;28;20044;-71
2022/12/04 01:58:29;;;;;;;;;;;-0.10;99.90;;;;;;5029800;28;19982;-69
2022/12/04 02:00:59;;;;;;;;;;;-0.10;99.90;;;;;;5012505;28;19972;-70
2022/12/04 02:03:25;;;;;;;;;;;-0.10;99.90;;;;;;5012349;28;19979;-69
2022/12/04 02:05:50;;;;;;;;;;;-0.10;99.90;;;;;;5030345;28;19926;-70
2022/12/04 02:08:16;;;;;;;;;;;0.50;99.90;;;;;;5022114;28;19940;-69
2022/12/04 02:10:50;;;;;;;;;;;-0.10;99.90;;;;;;5022488;28;19934;-70
2022/12/04 02:13:24;;;;;;;;;;;0.00;99.90;;;;;;4990435;28;20352;-71
2022/12/04 02:16:05;;;;;;;;;;;0.00;99.90;;;;;;5005885;28;19930;-70
2022/12/04 02:18:54;;;;;;;;;;;0.00;99.90;;;;;;4990351;28;20004;-69
2022/12/04 02:21:30;;;;;;;;;;;0.00;99.90;;;;;;5021872;28;20371;-69
2022/12/04 02:24:08;;;;;;;;;;;0.00;99.90;;;;;;4989627;28;20040;-70
2022/12/04 02:26:54;;;;;;;;;;;0.00;99.90;;;;;;4990000;28;19934;-70
2022/12/04 02:29:38;;;;;;;;;;;0.00;99.90;;;;;;4990231;28;20375;-70
2022/12/04 02:32:20;;;;;;;;;;;0.00;99.90;;;;;;5022060;28;20290;-70
2022/12/04 02:34:50;;;;;;;;;;;0.00;99.90;;;;;;4989038;28;19926;-70
2022/12/04 02:37:18;;;;;;;;;;;0.00;99.90;;;;;;5021223;28;19926;-71
2022/12/04 02:39:50;;;;;;;;;;;0.00;99.90;;;;;;5022057;28;20302;-70
2022/12/04 02:42:21;;;;;;;;;;;0.10;99.90;;;;;;4989744;28;19926;-75
2022/12/04 02:44:49;;;;;;;;;;;0.10;99.90;;;;;;5021759;28;19926;-74
2022/12/04 02:47:18;;;;;;;;;;;0.00;99.90;;;;;;5021632;28;19926;-76
2022/12/04 02:49:45;;;;;;;;;;;0.00;99.90;;;;;;5021581;28;19930;-74
2022/12/04 02:52:13;;;;;;;;;;;0.40;99.90;;;;;;5021576;28;19933;-74
2022/12/04 02:54:41;;;;;;;;;;;0.00;99.90;;;;;;5004725;28;20279;-74
2022/12/04 02:57:09;;;;;;;;;;;0.00;99.90;;;;;;5021380;28;20017;-74
2022/12/04 02:59:36;;;;;;;;;;;0.00;99.90;;;;;;5003989;28;19991;-74
2022/12/04 03:02:07;;;;;;;;;;;0.00;99.90;;;;;;5021716;28;19980;-74
2022/12/04 03:04:33;;;;;;;;;;;0.00;99.90;;;;;;5023453;28;19941;-73
2022/12/04 03:07:01;;;;;;;;;;;0.00;99.90;;;;;;5011236;28;20370;-74
2022/12/04 03:09:30;;;;;;;;;;;0.00;99.90;;;;;;5010461;28;19932;-74
2022/12/04 03:11:59;;;;;;;;;;;0.60;99.90;;;;;;5044314;28;19933;-74
2022/12/04 03:14:31;;;;;;;;;;;0.00;99.90;;;;;;5044111;28;19932;-74
2022/12/04 03:17:00;;;;;;;;;;;0.00;99.90;;;;;;5027676;28;20282;-73
2022/12/04 03:19:27;;;;;;;;;;;0.00;99.90;;;;;;5027089;28;20015;-73
2022/12/04 03:22:01;;;;;;;;;;;0.00;99.90;;;;;;5044213;28;19932;-73
2022/12/04 03:24:35;;;;;;;;;;;0.00;99.90;;;;;;5027402;28;20286;-73
2022/12/04 03:27:09;;;;;;;;;;;-0.10;99.90;;;;;;4994788;28;20298;-73
2022/12/04 03:29:39;;;;;;;;;;;0.00;99.90;;;;;;5043787;28;20314;-74
2022/12/04 03:32:06;;;;;;;;;;;0.00;99.90;;;;;;5027628;28;19926;-74
2022/12/04 03:34:37;;;;;;;;;;;0.00;99.90;;;;;;5010945;28;19925;-74
2022/12/04 03:37:09;;;;;;;;;;;-0.10;99.90;;;;;;5011028;28;19935;-74
2022/12/04 03:39:37;;;;;;;;;;;0.50;99.90;;;;;;5043494;28;19932;-74
2022/12/04 03:42:09;;;;;;;;;;;0.50;99.90;;;;;;5027544;28;19984;-73
2022/12/04 03:44:39;;;;;;;;;;;-0.10;99.90;;;;;;5060275;28;19925;-74
2022/12/04 03:47:05;;;;;;;;;;;0.30;99.90;;;;;;5043622;28;19940;-73
2022/12/04 03:49:39;;;;;;;;;;;-0.10;99.90;;;;;;5061735;27;20011;-74
2022/12/04 03:52:31;;;;;;;;;;;-0.10;99.90;;;;;;5030557;28;19972;-74
2022/12/04 03:55:00;;;;;;;;;;;-0.10;99.90;;;;;;5028272;28;19976;-74
2022/12/04 03:57:31;;;;;;;;;;;-0.10;99.90;;;;;;5046647;28;19925;-76
2022/12/04 04:00:14;;;;;;;;;;;-0.10;99.90;;;;;;5047142;28;19925;-74
2022/12/04 04:02:43;;;;;;;;;;;-0.10;99.90;;;;;;4997691;28;19925;-74
2022/12/04 04:05:11;;;;;;;;;;;-0.10;99.90;;;;;;5046582;28;19925;-74
2022/12/04 04:07:42;;;;;;;;;;;-0.20;99.90;;;;;;5046751;28;19925;-74
2022/12/04 04:10:13;;;;;;;;;;;-0.20;99.90;;;;;;5030499;28;20397;-74
2022/12/04 04:12:42;;;;;;;;;;;-0.20;99.90;;;;;;5046555;28;20291;-74
2022/12/04 04:26:17;;;;;;;;;;;-0.20;99.90;;;;;;5046984;28;19947;-73
2022/12/04 04:28:42;;;;;;;;;;;-0.20;99.90;;;;;;5013562;28;19997;-74
2022/12/04 04:31:26;;;;;;;;;;;-0.10;99.90;;;;;;5046828;28;19941;-73
2022/12/04 04:34:07;;;;;;;;;;;-0.20;99.90;;;;;;5046360;28;19929;-73
2022/12/04 04:36:36;;;;;;;;;;;-0.70;99.90;;;;;;4996850;28;20028;-73
2022/12/04 04:39:06;;;;;;;;;;;-0.20;99.90;;;;;;5046712;28;19951;-73
2022/12/04 04:41:37;;;;;;;;;;;-0.20;99.90;;;;;;5046468;28;20098;-75
2022/12/04 04:44:03;;;;;;;;;;;-0.20;99.90;;;;;;5046574;28;19933;-73
2022/12/04 04:46:31;;;;;;;;;;;-0.20;99.90;;;;;;5029929;28;20258;-74
2022/12/04 04:48:59;;;;;;;;;;;-0.20;99.90;;;;;;5029848;28;19925;-75
2022/12/04 04:51:26;;;;;;;;;;;-0.20;99.90;;;;;;5029698;28;19925;-73
2022/12/04 04:53:53;;;;;;;;;;;-0.20;99.90;;;;;;5045850;28;19936;-74
2022/12/04 04:56:19;;;;;;;;;;;-0.30;99.90;;;;;;5046073;28;19926;-74
2022/12/04 04:58:45;;;;;;;;;;;-0.20;99.90;;;;;;5029141;28;19932;-74
2022/12/04 05:01:12;;;;;;;;;;;-0.20;99.90;;;;;;5013212;28;19932;-73
2022/12/04 05:03:38;;;;;;;;;;;-0.30;99.90;;;;;;5046070;28;19925;-74
2022/12/04 05:06:04;;;;;;;;;;;-0.20;99.90;;;;;;5028472;27;19933;-74
2022/12/04 05:08:29;;;;;;;;;;;-0.20;99.90;;;;;;5023341;28;19926;-75
2022/12/04 05:10:55;;;;;;;;;;;-0.20;99.90;;;;;;5006659;28;19926;-74
2022/12/04 05:13:21;;;;;;;;;;;-0.20;99.90;;;;;;5006568;28;20367;-73
2022/12/04 05:16:00;;;;;;;;;;;-0.20;99.90;;;;;;5006516;28;19926;-73
2022/12/04 05:18:26;;;;;;;;;;;-0.20;99.90;;;;;;5023220;28;19930;-73
2022/12/04 05:20:51;;;;;;;;;;;-0.20;99.90;;;;;;5006342;28;19952;-74
2022/12/04 05:23:17;;;;;;;;;;;-0.20;99.90;;;;;;5006376;28;19925;-74
2022/12/04 05:25:43;;;;;;;;;;;-0.20;99.90;;;;;;5022489;28;19985;-74
2022/12/04 05:28:08;;;;;;;;;;;-0.20;99.90;;;;;;5022703;28;20287;-74
2022/12/04 05:30:34;;;;;;;;;;;-0.20;99.90;;;;;;5005749;28;19982;-75
2022/12/04 05:32:59;;;;;;;;;;;-0.20;99.90;;;;;;4973330;28;19933;-74
2022/12/04 05:35:25;;;;;;;;;;;-0.20;99.90;;;;;;5022421;28;19926;-74
2022/12/04 05:37:50;;;;;;;;;;;-0.10;99.90;;;;;;5021767;28;20295;-74
2022/12/04 05:40:16;;;;;;;;;;;-0.20;99.90;;;;;;4973429;28;20033;-74
2022/12/04 05:42:42;;;;;;;;;;;-0.10;99.90;;;;;;5005326;28;19926;-74
2022/12/04 05:45:07;;;;;;;;;;;-0.20;99.90;;;;;;5022218;28;20397;-74
2022/12/04 05:47:37;;;;;;;;;;;-0.10;99.90;;;;;;4973252;28;19930;-74
2022/12/04 05:50:02;;;;;;;;;;;-0.10;99.90;;;;;;5005647;28;20060;-73
2022/12/04 05:52:28;;;;;;;;;;;-0.10;99.90;;;;;;5005897;28;19969;-74
2022/12/04 05:54:59;;;;;;;;;;;-0.10;99.90;;;;;;5006142;28;20386;-74
2022/12/04 05:57:25;;;;;;;;;;;-0.10;99.90;;;;;;5022160;28;19930;-74
2022/12/04 05:59:52;;;;;;;;;;;-0.10;99.90;;;;;;5020472;28;20402;-74
2022/12/04 06:02:18;;;;;;;;;;;-0.10;99.90;;;;;;5005933;28;20294;-73
2022/12/04 06:04:43;;;;;;;;;;;-0.10;99.90;;;;;;5027065;28;19933;-75
2022/12/04 06:07:09;;;;;;;;;;;0.00;99.90;;;;;;5045129;28;19929;-74
2022/12/04 06:09:35;;;;;;;;;;;-0.10;99.90;;;;;;5045151;28;19929;-73
2022/12/04 06:12:01;;;;;;;;;;;0.00;99.90;;;;;;5044290;28;19978;-74
2022/12/04 06:14:26;;;;;;;;;;;0.00;99.90;;;;;;5027889;28;20320;-74
2022/12/04 06:16:52;;;;;;;;;;;0.00;99.90;;;;;;4994943;28;19929;-74
2022/12/04 06:19:19;;;;;;;;;;;0.50;99.90;;;;;;4995476;28;20048;-74
2022/12/04 06:21:46;;;;;;;;;;;0.00;99.90;;;;;;4994474;28;19975;-75
2022/12/04 06:24:13;;;;;;;;;;;0.30;99.90;;;;;;5043649;28;19925;-74
2022/12/04 06:26:38;;;;;;;;;;;0.00;99.90;;;;;;5027442;28;20321;-74
2022/12/04 06:29:04;;;;;;;;;;;0.00;99.90;;;;;;5060637;28;19936;-74
2022/12/04 06:31:29;;;;;;;;;;;0.20;99.90;;;;;;5044262;28;19932;-73
2022/12/04 06:33:56;;;;;;;;;;;0.10;99.90;;;;;;5027721;28;20365;-73
2022/12/04 06:36:22;;;;;;;;;;;0.10;99.90;;;;;;5027671;28;20025;-74
2022/12/04 06:38:48;;;;;;;;;;;0.10;99.90;;;;;;5027623;28;20343;-73
2022/12/04 06:41:14;;;;;;;;;;;0.50;99.90;;;;;;5044559;28;19925;-73
2022/12/04 06:43:40;;;;;;;;;;;0.10;99.90;;;;;;4995298;28;20037;-73
2022/12/04 06:46:08;;;;;;;;;;;0.10;99.90;;;;;;5011237;28;20052;-73
2022/12/04 06:48:34;;;;;;;;;;;0.10;99.90;;;;;;5044510;28;20289;-73
2022/12/04 06:51:00;;;;;;;;;;;0.50;99.90;;;;;;5027127;28;19929;-73
2022/12/04 06:53:26;;;;;;;;;;;0.20;99.90;;;;;;5044217;28;19932;-74
2022/12/04 06:55:52;;;;;;;;;;;0.10;99.90;;;;;;5010626;28;19929;-74
2022/12/04 06:58:17;;;;;;;;;;;0.10;99.90;;;;;;5027960;28;20339;-74
2022/12/04 07:00:43;;;;;;;;;;;0.10;99.90;;;;;;5060838;28;19979;-74
2022/12/04 07:03:09;;;;;;;;;;;0.10;99.90;;;;;;5043839;28;20089;-75
2022/12/04 07:05:34;;;;;;;;;;;0.10;99.90;;;;;;5043894;28;19925;-74
2022/12/04 07:08:00;;;;;;;;;;;0.20;99.90;;;;;;5060205;28;19925;-74
2022/12/04 07:10:25;;;;;;;;;;;0.20;99.90;;;;;;5044739;28;19925;-74
2022/12/04 07:12:51;;;;;;;;;;;0.90;99.90;;;;;;5043745;28;20409;-75
2022/12/04 07:15:16;;;;;;;;;;;0.20;99.90;;;;;;5044565;28;19932;-74
2022/12/04 07:17:42;;;;;;;;;;;0.20;99.90;;;;;;5027681;28;19929;-73
2022/12/04 07:20:08;;;;;;;;;;;0.20;99.90;;;;;;5044328;28;19932;-73
2022/12/04 07:22:33;;;;;;;;;;;0.20;99.90;;;;;;5011025;28;19947;-73
2022/12/04 07:24:59;;;;;;;;;;;0.20;99.90;;;;;;5062400;28;19925;-73
2022/12/04 07:27:24;;;;;;;;;;;0.40;99.90;;;;;;5031273;28;19933;-73
2022/12/04 07:29:51;;;;;;;;;;;0.10;99.90;;;;;;5064662;28;19933;-74
2022/12/04 07:32:17;;;;;;;;;;;0.20;99.90;;;;;;5031014;28;20054;-73
2022/12/04 07:34:42;;;;;;;;;;;0.80;99.90;;;;;;4998198;28;20382;-73
2022/12/04 07:37:08;;;;;;;;;;;0.20;99.90;;;;;;5030483;28;19973;-73
2022/12/04 07:39:34;;;;;;;;;;;0.20;99.90;;;;;;5048121;28;19925;-74
2022/12/04 07:41:59;;;;;;;;;;;0.20;99.90;;;;;;5014468;28;19926;-72
2022/12/04 07:44:25;;;;;;;;;;;0.20;99.90;;;;;;5064339;28;19925;-74
2022/12/04 07:46:50;;;;;;;;;;;0.20;99.90;;;;;;5030409;28;19926;-72
2022/12/04 07:49:16;;;;;;;;;;;0.20;99.90;;;;;;5030191;28;19925;-72
2022/12/04 07:51:41;;;;;;;;;;;0.20;99.90;;;;;;5047260;28;19938;-73
2022/12/04 07:54:08;;;;;;;;;;;0.20;99.90;;;;;;5013607;28;19925;-73
2022/12/04 07:56:33;;;;;;;;;;;0.30;99.90;;;;;;5046974;28;19929;-73
2022/12/04 07:58:59;;;;;;;;;;;0.30;99.90;;;;;;5047047;28;20386;-73
2022/12/04 08:01:25;;;;;;;;;;;0.80;99.90;;;;;;5047249;28;19978;-72
2022/12/04 08:03:51;;;;;;;;;;;0.30;99.90;;;;;;5047082;28;19999;-73
2022/12/04 08:06:18;;;;;;;;;;;0.30;99.90;;;;;;5046265;28;20460;-73
2022/12/04 08:08:44;;;;;;;;;;;0.30;99.90;;;;;;5047406;28;20270;-73
2022/12/04 08:11:11;;;;;;;;;;;0.40;99.90;;;;;;5029644;28;20008;-73
2022/12/04 08:13:37;;;;;;;;;;;0.80;99.90;;;;;;5046904;28;19981;-73
2022/12/04 08:16:04;;;;;;;;;;;0.40;99.90;;;;;;5029616;28;19930;-73
2022/12/04 08:18:29;;;;;;;;;;;0.40;99.90;;;;;;5030436;28;19925;-73
2022/12/04 08:21:21;;;;;;;;;;;0.40;99.90;;;;;;5013782;28;19925;-73
2022/12/04 08:23:48;;;;;;;;;;;0.40;99.90;;;;;;5001460;28;20398;-73
2022/12/04 08:26:14;;;;;;;;;;;0.50;99.90;;;;;;5046122;28;19925;-72
2022/12/04 08:28:40;;;;;;;;;;;0.40;99.90;;;;;;5013536;28;19931;-73
2022/12/04 08:31:07;;;;;;;;;;;0.50;99.90;;;;;;5013418;28;20004;-73
2022/12/04 08:33:32;;;;;;;;;;;0.50;99.90;;;;;;5030308;28;19925;-73
2022/12/04 08:35:58;;;;;;;;;;;0.50;99.90;;;;;;5046168;28;20423;-73
2022/12/04 08:38:24;;;;;;;;;;;0.50;99.90;;;;;;5046385;28;19925;-73
2022/12/04 08:40:49;;;;;;;;;;;0.50;99.90;;;;;;5030291;28;19925;-74
2022/12/04 08:43:15;;;;;;;;;;;0.50;99.90;;;;;;5029646;28;19925;-73
2022/12/04 08:45:40;;;;;;;;;;;0.60;99.90;;;;;;5063082;28;19925;-73
2022/12/04 08:48:06;;;;;;;;;;;1.10;99.90;;;;;;5029886;28;19947;-73
2022/12/04 08:50:31;;;;;;;;;;;0.60;99.90;;;;;;5029998;28;20392;-74
2022/12/04 08:52:57;;;;;;;;;;;0.60;99.90;;;;;;5029921;28;19925;-73
2022/12/04 08:55:23;;;;;;;;;;;0.60;99.90;;;;;;5013191;28;20143;-74
2022/12/04 08:57:52;;;;;;;;;;;1.00;99.90;;;;;;5013035;28;19925;-74
2022/12/04 09:00:18;;;;;;;;;;;0.70;99.90;;;;;;5029585;28;20020;-74
2022/12/04 09:02:43;;;;;;;;;;;0.70;99.90;;;;;;5046220;28;19925;-75
2022/12/04 09:05:09;;;;;;;;;;;0.70;99.90;;;;;;5045741;28;19925;-74
2022/12/04 09:07:34;;;;;;;;;;;1.10;99.90;;;;;;5029920;28;19925;-74
2022/12/04 09:10:00;;;;;;;;;;;0.70;99.90;;;;;;5046460;28;19964;-74
2022/12/04 09:12:26;;;;;;;;;;;0.80;99.90;;;;;;5062392;28;19925;-74
2022/12/04 09:14:51;;;;;;;;;;;1.10;99.90;;;;;;5045991;28;19929;-74
2022/12/04 09:17:17;;;;;;;;;;;0.80;99.90;;;;;;5028973;28;19978;-74
2022/12/04 09:19:42;;;;;;;;;;;0.80;99.90;;;;;;5046153;28;19929;-74
2022/12/04 09:22:08;;;;;;;;;;;0.90;99.90;;;;;;5046182;28;20330;-75
2022/12/04 09:24:33;;;;;;;;;;;1.00;99.90;;;;;;5045747;28;19974;-74
2022/12/04 09:27:00;;;;;;;;;;;0.90;99.90;;;;;;5045902;28;20359;-73
2022/12/04 09:29:25;;;;;;;;;;;1.00;99.90;;;;;;5045180;28;19932;-73
2022/12/04 09:31:51;;;;;;;;;;;1.00;99.90;;;;;;5062684;28;19929;-73
2022/12/04 09:34:16;;;;;;;;;;;1.00;99.90;;;;;;5045742;28;19977;-73
2022/12/04 09:36:42;;;;;;;;;;;1.00;99.90;;;;;;5029095;28;19952;-74
2022/12/04 09:39:09;;;;;;;;;;;1.10;99.90;;;;;;5045437;28;20031;-74
2022/12/04 09:42:01;;;;;;;;;;;0.90;99.90;;;;;;5045428;28;20426;-74
2022/12/04 09:44:30;;;;;;;;;;;1.20;99.90;;;;;;5028855;28;19948;-75
2022/12/04 09:47:04;;;;;;;;;;;1.30;99.90;;;;;;5028383;28;19975;-75
2022/12/04 09:49:50;;;;;;;;;;;1.40;99.90;;;;;;5028924;28;19925;-74
2022/12/04 09:52:35;;;;;;;;;;;1.50;99.90;;;;;;4996425;28;20267;-74
2022/12/04 09:55:02;;;;;;;;;;;1.50;99.90;;;;;;5045576;28;19926;-75
2022/12/04 09:57:33;;;;;;;;;;;1.70;99.90;;;;;;5045163;28;19933;-75
2022/12/04 09:59:58;;;;;;;;;;;1.70;99.90;;;;;;4996648;28;19982;-75
2022/12/04 10:02:33;;;;;;;;;;;1.70;99.90;;;;;;5013264;28;19925;-77
2022/12/04 10:04:59;;;;;;;;;;;1.70;99.90;;;;;;5061305;27;20069;-75
2022/12/04 10:07:35;;;;;;;;;;;2.00;99.90;;;;;;5028308;28;20386;-75
2022/12/04 10:10:20;;;;;;;;;;;1.80;99.90;;;;;;5012145;28;19925;-74
2022/12/04 10:13:05;;;;;;;;;;;1.80;99.90;;;;;;5011866;28;19925;-75
2022/12/04 10:15:37;;;;;;;;;;;1.80;99.90;;;;;;5044684;28;19925;-74
2022/12/04 10:18:17;;;;;;;;;;;1.80;99.90;;;;;;5044860;28;20392;-75
2022/12/04 10:21:01;;;;;;;;;;;1.80;99.90;;;;;;5044887;28;20047;-74
2022/12/04 10:23:29;;;;;;;;;;;1.80;99.90;;;;;;5061084;28;19932;-76
2022/12/04 10:25:55;;;;;;;;;;;1.90;99.90;;;;;;5045311;28;20045;-74
2022/12/04 10:28:27;;;;;;;;;;;1.90;99.90;;;;;;5011806;28;19929;-74
2022/12/04 10:30:54;;;;;;;;;;;1.90;99.90;;;;;;4995823;28;19945;-74
2022/12/04 10:33:29;;;;;;;;;;;2.00;99.90;;;;;;5045022;28;20324;-77
2022/12/04 10:35:55;;;;;;;;;;;1.90;99.90;;;;;;5045265;28;19932;-74
2022/12/04 10:38:31;;;;;;;;;;;2.10;99.90;;;;;;5028222;28;20024;-77
2022/12/04 10:41:00;;;;;;;;;;;2.00;99.90;;;;;;5044984;28;20391;-74
2022/12/04 10:43:30;;;;;;;;;;;2.10;99.90;;;;;;4995511;28;19974;-74
2022/12/04 10:45:56;;;;;;;;;;;2.00;99.90;;;;;;4995958;28;20277;-74
2022/12/04 10:48:26;;;;;;;;;;;2.00;99.90;;;;;;5044482;28;20323;-77
2022/12/04 10:50:52;;;;;;;;;;;2.00;99.90;;;;;;5028486;28;19925;-74
2022/12/04 10:53:22;;;;;;;;;;;2.30;99.90;;;;;;5061583;28;19926;-75
2022/12/04 10:55:48;;;;;;;;;;;2.10;99.90;;;;;;5027257;28;19925;-74
2022/12/04 10:58:16;;;;;;;;;;;2.20;99.90;;;;;;5013317;28;19932;-75
2022/12/04 11:00:44;;;;;;;;;;;2.10;99.90;;;;;;5051425;28;19932;-76
2022/12/04 11:03:22;;;;;;;;;;;2.10;99.90;;;;;;5002258;28;19925;-75
2022/12/04 11:05:54;;;;;;;;;;;2.10;99.90;;;;;;5051162;28;20358;-75
2022/12/04 11:08:25;;;;;;;;;;;2.10;99.90;;;;;;5002429;28;19935;-76
2022/12/04 11:10:59;;;;;;;;;;;2.10;99.90;;;;;;5051599;28;20012;-75
2022/12/04 11:13:25;;;;;;;;;;;2.10;99.90;;;;;;5051248;28;19921;-75
2022/12/04 11:15:52;;;;;;;;;;;2.10;99.90;;;;;;5034732;28;19921;-74
2022/12/04 11:18:23;;;;;;;;;;;2.10;99.90;;;;;;5051572;28;19925;-73
2022/12/04 11:21:09;;;;;;;;;;;2.10;99.90;;;;;;5001664;28;20385;-74
2022/12/04 11:23:41;;;;;;;;;;;2.10;99.90;;;;;;5001813;28;19921;-73
2022/12/04 11:26:08;;;;;;;;;;;2.10;99.90;;;;;;5051516;28;19970;-73
2022/12/04 11:28:34;;;;;;;;;;;2.10;99.90;;;;;;5034454;28;20331;-74
2022/12/04 11:31:02;;;;;;;;;;;2.10;99.90;;;;;;5034316;28;19921;-74
2022/12/04 11:33:33;;;;;;;;;;;2.20;99.90;;;;;;5034246;28;19921;-75
2022/12/04 11:36:01;;;;;;;;;;;2.20;99.90;;;;;;5067917;28;20007;-74
2022/12/04 11:38:28;;;;;;;;;;;2.20;99.90;;;;;;5050981;28;19921;-75
2022/12/04 11:40:55;;;;;;;;;;;2.20;99.90;;;;;;5050990;28;19921;-74
2022/12/04 11:43:23;;;;;;;;;;;2.30;99.90;;;;;;5001613;28;19968;-75
2022/12/04 11:45:55;;;;;;;;;;;2.50;99.90;;;;;;5049055;28;20308;-76
2022/12/04 11:48:21;;;;;;;;;;;2.20;99.90;;;;;;5017220;28;20219;-75
2022/12/04 11:50:50;;;;;;;;;;;2.20;99.90;;;;;;5033518;28;19925;-76
2022/12/04 11:53:32;;;;;;;;;;;2.20;99.90;;;;;;5033777;28;19926;-76
2022/12/04 11:56:01;;;;;;;;;;;2.10;99.90;;;;;;5034398;28;19989;-75
2022/12/04 11:58:26;;;;;;;;;;;2.10;99.90;;;;;;5050732;28;20125;-75
2022/12/04 12:01:12;;;;;;;;;;;2.20;99.90;;;;;;5067509;28;20036;-73
2022/12/04 12:03:43;;;;;;;;;;;2.20;99.90;;;;;;5048039;28;19985;-74
2022/12/04 12:06:20;;;;;;;;;;;2.10;99.90;;;;;;5050596;27;19950;-74
2022/12/04 12:09:12;;;;;;;;;;;2.30;99.90;;;;;;5050608;28;20323;-75
2022/12/04 12:11:50;;;;;;;;;;;2.20;99.90;;;;;;5016411;28;19925;-76
2022/12/04 12:14:16;;;;;;;;;;;2.20;99.90;;;;;;5047012;28;19925;-76
2022/12/04 12:16:48;;;;;;;;;;;2.20;99.90;;;;;;5063852;28;20015;-75
2022/12/04 12:19:28;;;;;;;;;;;2.20;99.90;;;;;;5030639;28;20370;-76
2022/12/04 12:22:06;;;;;;;;;;;2.20;99.90;;;;;;5030247;28;19926;-76
2022/12/04 12:24:43;;;;;;;;;;;2.20;99.90;;;;;;5030427;28;20263;-75
2022/12/04 12:27:24;;;;;;;;;;;2.20;99.90;;;;;;5030594;28;20273;-74
2022/12/04 12:29:50;;;;;;;;;;;2.70;99.90;;;;;;5046776;28;19925;-73
2022/12/04 12:32:31;;;;;;;;;;;2.20;99.90;;;;;;5063736;28;19925;-76
2022/12/04 12:34:57;;;;;;;;;;;2.20;99.90;;;;;;5030979;28;19926;-73
2022/12/04 12:37:40;;;;;;;;;;;2.20;99.90;;;;;;5013606;28;20157;-73
2022/12/04 12:40:09;;;;;;;;;;;2.20;99.90;;;;;;5047034;28;19929;-72
2022/12/04 12:42:42;;;;;;;;;;;2.20;99.90;;;;;;5046726;28;19926;-71
2022/12/04 12:45:20;;;;;;;;;;;2.20;99.90;;;;;;5030666;28;19970;-72
2022/12/04 12:47:48;;;;;;;;;;;2.20;99.90;;;;;;5046739;28;20156;-72
2022/12/04 12:50:25;;;;;;;;;;;2.30;99.90;;;;;;5030439;28;19933;-71
2022/12/04 12:52:54;;;;;;;;;;;2.30;99.90;;;;;;4996996;28;20332;-72
2022/12/04 12:55:23;;;;;;;;;;;2.30;99.90;;;;;;5030297;28;19926;-71
2022/12/04 12:57:55;;;;;;;;;;;2.30;99.90;;;;;;5046202;28;19936;-71
2022/12/04 13:00:21;;;;;;;;;;;2.40;99.90;;;;;;5046903;28;19974;-72
2022/12/04 13:02:54;;;;;;;;;;;2.30;99.90;;;;;;5029347;28;19932;-71
2022/12/04 13:05:24;;;;;;;;;;;2.30;99.90;;;;;;5013158;28;20075;-72
2022/12/04 13:07:56;;;;;;;;;;;2.30;99.90;;;;;;5045362;28;19929;-71
2022/12/04 13:10:23;;;;;;;;;;;2.40;99.90;;;;;;5046135;28;19925;-76
2022/12/04 13:12:58;;;;;;;;;;;2.40;99.90;;;;;;5029942;28;20252;-77
2022/12/04 13:15:31;;;;;;;;;;;2.40;99.90;;;;;;5046113;28;20389;-76
2022/12/04 13:17:57;;;;;;;;;;;2.40;99.90;;;;;;5046154;28;20370;-76
2022/12/04 13:20:25;;;;;;;;;;;2.40;99.90;;;;;;5014403;28;19938;-78
2022/12/04 13:23:02;;;;;;;;;;;2.40;99.90;;;;;;5029127;28;20017;-78
2022/12/04 13:25:27;;;;;;;;;;;2.40;99.90;;;;;;4998065;28;19925;-78
2022/12/04 13:27:56;;;;;;;;;;;2.40;99.90;;;;;;5062856;27;20346;-74
2022/12/04 13:30:23;;;;;;;;;;;2.40;99.90;;;;;;5046938;28;19931;-79
2022/12/04 13:33:15;;;;;;;;;;;2.50;99.90;;;;;;5046010;28;19926;-78
2022/12/04 13:35:43;;;;;;;;;;;2.40;99.90;;;;;;5035757;28;19925;-77
2022/12/04 13:38:18;;;;;;;;;;;2.40;99.90;;;;;;5048080;28;19925;-78
2022/12/04 13:40:46;;;;;;;;;;;2.50;99.90;;;;;;5013488;28;20089;-77
2022/12/04 13:43:15;;;;;;;;;;;2.50;99.90;;;;;;5046244;28;19925;-75
2022/12/04 13:45:43;;;;;;;;;;;2.50;99.90;;;;;;5045103;28;20378;-77
2022/12/04 13:48:09;;;;;;;;;;;2.50;99.90;;;;;;5045621;28;19932;-78
2022/12/04 13:50:36;;;;;;;;;;;2.50;99.90;;;;;;5029406;28;19931;-77
2022/12/04 13:53:02;;;;;;;;;;;2.50;99.90;;;;;;5029031;28;19941;-77
2022/12/04 13:55:32;;;;;;;;;;;2.50;99.90;;;;;;5028643;28;20011;-78
2022/12/04 13:58:04;;;;;;;;;;;2.50;99.90;;;;;;5044784;28;20374;-78
2022/12/04 14:00:34;;;;;;;;;;;2.50;99.90;;;;;;5045529;28;20016;-77
2022/12/04 14:03:19;;;;;;;;;;;2.50;99.90;;;;;;5032904;28;20004;-77
2022/12/04 14:05:46;;;;;;;;;;;2.60;99.90;;;;;;4998185;28;19932;-77
2022/12/04 14:08:18;;;;;;;;;;;2.60;99.90;;;;;;5046292;28;19937;-78
2022/12/04 14:10:44;;;;;;;;;;;2.60;99.90;;;;;;5063073;28;19932;-77
2022/12/04 14:13:20;;;;;;;;;;;2.60;99.90;;;;;;5028843;28;19925;-78
2022/12/04 14:15:46;;;;;;;;;;;2.60;99.90;;;;;;5029073;28;19933;-73
2022/12/04 14:18:12;;;;;;;;;;;2.70;99.90;;;;;;5045492;28;19925;-73
2022/12/04 14:20:38;;;;;;;;;;;2.70;99.90;;;;;;5044805;28;19932;-73
2022/12/04 14:23:25;;;;;;;;;;;2.70;99.90;;;;;;5028607;28;19925;-79
2022/12/04 14:25:55;;;;;;;;;;;2.70;99.90;;;;;;5028822;28;19933;-79
2022/12/04 14:28:30;;;;;;;;;;;2.70;99.90;;;;;;4996122;28;19932;-76
2022/12/04 14:31:13;;;;;;;;;;;2.70;99.90;;;;;;5044881;28;19926;-75
2022/12/04 14:33:43;;;;;;;;;;;2.70;99.90;;;;;;5044957;28;20062;-77
2022/12/04 14:36:14;;;;;;;;;;;2.60;99.90;;;;;;4995485;28;19932;-78
2022/12/04 14:38:42;;;;;;;;;;;2.60;99.90;;;;;;5028558;28;20028;-76
2022/12/04 14:41:09;;;;;;;;;;;3.30;99.90;;;;;;5028103;28;19932;-76
2022/12/04 14:43:38;;;;;;;;;;;2.60;99.90;;;;;;5045058;28;20059;-75
2022/12/04 14:46:13;;;;;;;;;;;2.90;99.90;;;;;;5044800;28;19928;-76
2022/12/04 14:48:41;;;;;;;;;;;2.60;99.90;;;;;;5045087;28;20416;-74